sensor_id;sensor_type;location;lat;lon;timestamp;temperature;humidity
1367;DHT22;16877;48.810;9.282;2023-05-10T00:01:15;24.50;63.70
1367;DHT22;16877;48.810;9.282;2023-05-10T00:03:42;24.20;63.50
1367;DHT22;16877;48.810;9.282;2023-05-10T00:06:09;24.30;63.50
1367;DHT22;16877;48.810;9.282;2023-05-10T00:08:37;24.50;63.70
1367;DHT22;16877;48.810;9.282;2023-05-10T00:11:09;24.20;63.20
1367;DHT22;16877;48.810;9.282;2023-05-10T00:13:36;24.30;63.30
1367;DHT22;16877;48.810;9.282;2023-05-10T00:16:18;24.20;62.80
1367;DHT22;16877;48.810;9.282;2023-05-10T00:18:46;24.10;62.20
1367;DHT22;16877;48.810;9.282;2023-05-10T00:21:14;24.10;62.10
1367;DHT22;16877;48.810;9.282;2023-05-10T00:23:42;24.10;62.10
1367;DHT22;16877;48.810;9.282;2023-05-10T00:26:11;24.00;61.90
1367;DHT22;16877;48.810;9.282;2023-05-10T00:28:38;24.10;62.00
1367;DHT22;16877;48.810;9.282;2023-05-10T00:31:06;23.90;61.60
1367;DHT22;16877;48.810;9.282;2023-05-10T00:33:33;23.90;61.60
1367;DHT22;16877;48.810;9.282;2023-05-10T00:36:01;24.00;61.50
1367;DHT22;16877;48.810;9.282;2023-05-10T00:38:28;23.70;61.00
1367;DHT22;16877;48.810;9.282;2023-05-10T00:40:56;23.90;61.20
1367;DHT22;16877;48.810;9.282;2023-05-10T00:43:25;23.70;60.90
1367;DHT22;16877;48.810;9.282;2023-05-10T00:45:57;23.70;60.70
1367;DHT22;16877;48.810;9.282;2023-05-10T00:48:25;23.70;60.80
1367;DHT22;16877;48.810;9.282;2023-05-10T00:50:53;23.60;60.40
1367;DHT22;16877;48.810;9.282;2023-05-10T00:53:21;23.60;60.40
1367;DHT22;16877;48.810;9.282;2023-05-10T00:55:54;23.80;60.60
1367;DHT22;16877;48.810;9.282;2023-05-10T00:58:22;23.60;60.20
1367;DHT22;16877;48.810;9.282;2023-05-10T01:00:52;23.90;60.50
1367;DHT22;16877;48.810;9.282;2023-05-10T01:03:19;23.70;60.50
1367;DHT22;16877;48.810;9.282;2023-05-10T01:05:47;23.50;60.20
1367;DHT22;16877;48.810;9.282;2023-05-10T01:08:15;23.70;60.40
1367;DHT22;16877;48.810;9.282;2023-05-10T01:10:43;23.50;60.10
1367;DHT22;16877;48.810;9.282;2023-05-10T01:13:11;23.40;60.00
1367;DHT22;16877;48.810;9.282;2023-05-10T01:15:40;23.50;60.10
1367;DHT22;16877;48.810;9.282;2023-05-10T01:18:12;23.60;60.20
1367;DHT22;16877;48.810;9.282;2023-05-10T01:20:43;23.40;60.00
1367;DHT22;16877;48.810;9.282;2023-05-10T01:23:26;23.50;60.00
1367;DHT22;16877;48.810;9.282;2023-05-10T01:26:24;23.60;60.10
1367;DHT22;16877;48.810;9.282;2023-05-10T01:29:13;23.50;60.00
1367;DHT22;16877;48.810;9.282;2023-05-10T01:32:19;23.50;60.00
1367;DHT22;16877;48.810;9.282;2023-05-10T01:34:55;23.50;59.80
1367;DHT22;16877;48.810;9.282;2023-05-10T01:37:31;23.40;59.70
1367;DHT22;16877;48.810;9.282;2023-05-10T01:40:10;23.50;59.80
1367;DHT22;16877;48.810;9.282;2023-05-10T01:42:47;23.30;59.50
1367;DHT22;16877;48.810;9.282;2023-05-10T01:45:21;23.30;59.60
1367;DHT22;16877;48.810;9.282;2023-05-10T01:48:02;23.30;59.50
1367;DHT22;16877;48.810;9.282;2023-05-10T01:50:32;23.40;59.50
1367;DHT22;16877;48.810;9.282;2023-05-10T01:53:05;23.40;59.50
1367;DHT22;16877;48.810;9.282;2023-05-10T01:55:35;23.20;59.40
1367;DHT22;16877;48.810;9.282;2023-05-10T01:58:07;23.40;59.50
1367;DHT22;16877;48.810;9.282;2023-05-10T02:00:40;23.60;59.60
1367;DHT22;16877;48.810;9.282;2023-05-10T02:03:12;23.50;59.50
1367;DHT22;16877;48.810;9.282;2023-05-10T02:05:41;23.60;59.60
1367;DHT22;16877;48.810;9.282;2023-05-10T02:08:11;23.30;59.30
1367;DHT22;16877;48.810;9.282;2023-05-10T02:10:39;23.40;59.50
1367;DHT22;16877;48.810;9.282;2023-05-10T02:13:07;23.50;59.50
1367;DHT22;16877;48.810;9.282;2023-05-10T02:15:37;23.40;59.40
1367;DHT22;16877;48.810;9.282;2023-05-10T02:18:06;23.60;59.60
1367;DHT22;16877;48.810;9.282;2023-05-10T02:20:39;23.50;59.60
1367;DHT22;16877;48.810;9.282;2023-05-10T02:23:08;23.20;59.30
1367;DHT22;16877;48.810;9.282;2023-05-10T02:25:36;23.40;59.50
1367;DHT22;16877;48.810;9.282;2023-05-10T02:28:06;23.50;59.60
1367;DHT22;16877;48.810;9.282;2023-05-10T02:30:35;23.40;59.50
1367;DHT22;16877;48.810;9.282;2023-05-10T02:33:04;23.40;59.50
1367;DHT22;16877;48.810;9.282;2023-05-10T02:35:38;23.40;59.50
1367;DHT22;16877;48.810;9.282;2023-05-10T02:38:06;23.40;59.50
1367;DHT22;16877;48.810;9.282;2023-05-10T02:40:36;23.60;59.60
1367;DHT22;16877;48.810;9.282;2023-05-10T02:43:04;23.40;59.60
1367;DHT22;16877;48.810;9.282;2023-05-10T02:45:32;23.50;59.70
1367;DHT22;16877;48.810;9.282;2023-05-10T02:48:01;23.30;59.50
1367;DHT22;16877;48.810;9.282;2023-05-10T02:50:33;23.40;59.50
1367;DHT22;16877;48.810;9.282;2023-05-10T02:53:09;23.40;59.50
1367;DHT22;16877;48.810;9.282;2023-05-10T02:55:53;23.40;59.40
1367;DHT22;16877;48.810;9.282;2023-05-10T02:58:24;23.50;59.50
1367;DHT22;16877;48.810;9.282;2023-05-10T03:00:56;23.50;59.50
1367;DHT22;16877;48.810;9.282;2023-05-10T03:03:24;23.50;59.50
1367;DHT22;16877;48.810;9.282;2023-05-10T03:05:51;23.40;59.50
1367;DHT22;16877;48.810;9.282;2023-05-10T03:08:23;23.50;59.50
1367;DHT22;16877;48.810;9.282;2023-05-10T03:11:01;23.50;59.60
1367;DHT22;16877;48.810;9.282;2023-05-10T03:13:39;23.50;59.50
1367;DHT22;16877;48.810;9.282;2023-05-10T03:16:11;23.20;59.40
1367;DHT22;16877;48.810;9.282;2023-05-10T03:18:43;23.20;59.40
1367;DHT22;16877;48.810;9.282;2023-05-10T03:21:12;23.60;59.80
1367;DHT22;16877;48.810;9.282;2023-05-10T03:23:45;23.20;60.00
1367;DHT22;16877;48.810;9.282;2023-05-10T03:26:17;23.50;59.60
1367;DHT22;16877;48.810;9.282;2023-05-10T03:28:47;23.20;59.40
1367;DHT22;16877;48.810;9.282;2023-05-10T03:31:15;23.50;59.60
1367;DHT22;16877;48.810;9.282;2023-05-10T03:33:47;23.40;59.60
1367;DHT22;16877;48.810;9.282;2023-05-10T03:36:15;23.40;59.50
1367;DHT22;16877;48.810;9.282;2023-05-10T03:38:44;23.40;59.60
1367;DHT22;16877;48.810;9.282;2023-05-10T03:41:11;23.50;59.70
1367;DHT22;16877;48.810;9.282;2023-05-10T03:43:39;23.60;59.70
1367;DHT22;16877;48.810;9.282;2023-05-10T03:46:07;23.70;59.70
1367;DHT22;16877;48.810;9.282;2023-05-10T03:48:35;23.50;59.50
1367;DHT22;16877;48.810;9.282;2023-05-10T03:51:05;23.60;59.60
1367;DHT22;16877;48.810;9.282;2023-05-10T03:53:33;23.50;59.40
1367;DHT22;16877;48.810;9.282;2023-05-10T03:56:03;23.30;59.30
1367;DHT22;16877;48.810;9.282;2023-05-10T03:58:30;23.40;59.30
1367;DHT22;16877;48.810;9.282;2023-05-10T04:00:58;23.30;59.30
1367;DHT22;16877;48.810;9.282;2023-05-10T04:03:25;23.40;59.30
1367;DHT22;16877;48.810;9.282;2023-05-10T04:05:58;23.50;59.40
1367;DHT22;16877;48.810;9.282;2023-05-10T04:08:26;23.40;59.30
1367;DHT22;16877;48.810;9.282;2023-05-10T04:11:06;23.40;59.30
1367;DHT22;16877;48.810;9.282;2023-05-10T04:13:34;23.50;59.40
1367;DHT22;16877;48.810;9.282;2023-05-10T04:16:03;23.40;59.30
1367;DHT22;16877;48.810;9.282;2023-05-10T04:18:31;23.60;59.50
1367;DHT22;16877;48.810;9.282;2023-05-10T04:20:59;23.60;59.50
1367;DHT22;16877;48.810;9.282;2023-05-10T04:23:27;23.50;59.50
1367;DHT22;16877;48.810;9.282;2023-05-10T04:25:59;23.40;59.40
1367;DHT22;16877;48.810;9.282;2023-05-10T04:28:28;23.40;59.40
1367;DHT22;16877;48.810;9.282;2023-05-10T04:31:00;23.60;59.60
1367;DHT22;16877;48.810;9.282;2023-05-10T04:33:28;23.60;59.60
1367;DHT22;16877;48.810;9.282;2023-05-10T04:35:57;23.40;59.30
1367;DHT22;16877;48.810;9.282;2023-05-10T04:38:24;23.50;59.40
1367;DHT22;16877;48.810;9.282;2023-05-10T04:40:52;23.60;59.40
1367;DHT22;16877;48.810;9.282;2023-05-10T04:43:20;23.30;59.20
1367;DHT22;16877;48.810;9.282;2023-05-10T04:45:49;23.50;59.50
1367;DHT22;16877;48.810;9.282;2023-05-10T04:48:17;23.50;59.50
1367;DHT22;16877;48.810;9.282;2023-05-10T04:50:45;23.60;59.50
1367;DHT22;16877;48.810;9.282;2023-05-10T04:53:13;23.40;59.30
1367;DHT22;16877;48.810;9.282;2023-05-10T04:55:41;23.50;59.40
1367;DHT22;16877;48.810;9.282;2023-05-10T04:58:10;23.50;59.40
1367;DHT22;16877;48.810;9.282;2023-05-10T05:00:42;23.70;59.50
1367;DHT22;16877;48.810;9.282;2023-05-10T05:03:13;23.50;59.30
1367;DHT22;16877;48.810;9.282;2023-05-10T05:05:44;23.30;59.20
1367;DHT22;16877;48.810;9.282;2023-05-10T05:08:12;23.50;59.20
1367;DHT22;16877;48.810;9.282;2023-05-10T05:10:43;23.40;59.20
1367;DHT22;16877;48.810;9.282;2023-05-10T05:13:23;23.60;59.30
1367;DHT22;16877;48.810;9.282;2023-05-10T05:15:55;23.50;59.20
1367;DHT22;16877;48.810;9.282;2023-05-10T05:18:31;23.80;59.30
1367;DHT22;16877;48.810;9.282;2023-05-10T05:20:58;23.70;59.80
1367;DHT22;16877;48.810;9.282;2023-05-10T05:23:26;23.60;59.70
1367;DHT22;16877;48.810;9.282;2023-05-10T05:25:54;23.70;59.10
1367;DHT22;16877;48.810;9.282;2023-05-10T05:28:22;23.90;59.30
1367;DHT22;16877;48.810;9.282;2023-05-10T05:30:49;23.80;59.20
1367;DHT22;16877;48.810;9.282;2023-05-10T05:33:18;23.80;59.10
1367;DHT22;16877;48.810;9.282;2023-05-10T05:35:50;23.90;59.20
1367;DHT22;16877;48.810;9.282;2023-05-10T05:38:17;23.90;59.10
1367;DHT22;16877;48.810;9.282;2023-05-10T05:40:45;23.90;59.00
1367;DHT22;16877;48.810;9.282;2023-05-10T05:43:12;23.80;59.00
1367;DHT22;16877;48.810;9.282;2023-05-10T05:45:39;23.80;59.00
1367;DHT22;16877;48.810;9.282;2023-05-10T05:48:06;24.00;59.10
1367;DHT22;16877;48.810;9.282;2023-05-10T05:50:34;23.90;59.00
1367;DHT22;16877;48.810;9.282;2023-05-10T05:53:02;24.10;59.00
1367;DHT22;16877;48.810;9.282;2023-05-10T05:55:30;24.00;58.90
1367;DHT22;16877;48.810;9.282;2023-05-10T05:57:58;24.00;58.90
1367;DHT22;16877;48.810;9.282;2023-05-10T06:00:26;23.90;58.80
1367;DHT22;16877;48.810;9.282;2023-05-10T06:02:57;24.10;58.90
1367;DHT22;16877;48.810;9.282;2023-05-10T06:05:29;24.10;58.80
1367;DHT22;16877;48.810;9.282;2023-05-10T06:07:56;24.30;58.90
1367;DHT22;16877;48.810;9.282;2023-05-10T06:10:26;24.20;58.70
1367;DHT22;16877;48.810;9.282;2023-05-10T06:12:53;24.30;58.80
1367;DHT22;16877;48.810;9.282;2023-05-10T06:15:20;24.20;58.70
1367;DHT22;16877;48.810;9.282;2023-05-10T06:17:48;24.20;58.60
1367;DHT22;16877;48.810;9.282;2023-05-10T06:20:18;24.30;58.50
1367;DHT22;16877;48.810;9.282;2023-05-10T06:22:46;24.30;58.40
1367;DHT22;16877;48.810;9.282;2023-05-10T06:25:13;24.30;58.40
1367;DHT22;16877;48.810;9.282;2023-05-10T06:27:45;24.50;58.50
1367;DHT22;16877;48.810;9.282;2023-05-10T06:30:13;24.50;58.40
1367;DHT22;16877;48.810;9.282;2023-05-10T06:32:40;24.40;58.40
1367;DHT22;16877;48.810;9.282;2023-05-10T06:35:09;24.30;58.20
1367;DHT22;16877;48.810;9.282;2023-05-10T06:37:36;24.50;58.30
1367;DHT22;16877;48.810;9.282;2023-05-10T06:40:05;24.30;58.00
1367;DHT22;16877;48.810;9.282;2023-05-10T06:42:33;24.30;57.90
1367;DHT22;16877;48.810;9.282;2023-05-10T06:45:02;24.40;58.00
1367;DHT22;16877;48.810;9.282;2023-05-10T06:47:31;24.20;57.80
1367;DHT22;16877;48.810;9.282;2023-05-10T06:49:58;24.30;57.80
1367;DHT22;16877;48.810;9.282;2023-05-10T06:52:26;24.40;57.80
1367;DHT22;16877;48.810;9.282;2023-05-10T06:54:54;24.40;57.70
1367;DHT22;16877;48.810;9.282;2023-05-10T06:57:21;24.40;57.60
1367;DHT22;16877;48.810;9.282;2023-05-10T06:59:49;24.30;57.50
1367;DHT22;16877;48.810;9.282;2023-05-10T07:02:18;24.40;57.50
1367;DHT22;16877;48.810;9.282;2023-05-10T07:04:47;24.60;57.70
1367;DHT22;16877;48.810;9.282;2023-05-10T07:07:14;24.40;57.50
1367;DHT22;16877;48.810;9.282;2023-05-10T07:09:46;24.40;57.50
1367;DHT22;16877;48.810;9.282;2023-05-10T07:12:13;24.40;57.60
1367;DHT22;16877;48.810;9.282;2023-05-10T07:14:41;24.30;57.50
1367;DHT22;16877;48.810;9.282;2023-05-10T07:17:10;24.40;57.60
1367;DHT22;16877;48.810;9.282;2023-05-10T07:19:39;24.50;57.70
1367;DHT22;16877;48.810;9.282;2023-05-10T07:22:07;24.50;57.60
1367;DHT22;16877;48.810;9.282;2023-05-10T07:24:34;24.70;57.60
1367;DHT22;16877;48.810;9.282;2023-05-10T07:27:02;24.80;57.50
1367;DHT22;16877;48.810;9.282;2023-05-10T07:29:30;24.60;57.10
1367;DHT22;16877;48.810;9.282;2023-05-10T07:31:57;24.70;56.90
1367;DHT22;16877;48.810;9.282;2023-05-10T07:34:25;25.00;57.10
1367;DHT22;16877;48.810;9.282;2023-05-10T07:36:54;24.90;56.90
1367;DHT22;16877;48.810;9.282;2023-05-10T07:39:21;25.00;57.00
1367;DHT22;16877;48.810;9.282;2023-05-10T07:41:49;25.30;57.10
1367;DHT22;16877;48.810;9.282;2023-05-10T07:44:17;25.30;57.10
1367;DHT22;16877;48.810;9.282;2023-05-10T07:46:45;25.40;57.10
1367;DHT22;16877;48.810;9.282;2023-05-10T07:49:13;25.20;56.90
1367;DHT22;16877;48.810;9.282;2023-05-10T07:51:40;25.30;56.80
1367;DHT22;16877;48.810;9.282;2023-05-10T07:54:09;25.50;56.80
1367;DHT22;16877;48.810;9.282;2023-05-10T07:56:36;25.50;56.60
1367;DHT22;16877;48.810;9.282;2023-05-10T07:59:05;25.30;56.40
1367;DHT22;16877;48.810;9.282;2023-05-10T08:01:39;25.50;56.40
1367;DHT22;16877;48.810;9.282;2023-05-10T08:04:09;25.60;57.00
1367;DHT22;16877;48.810;9.282;2023-05-10T08:06:41;25.70;56.40
1367;DHT22;16877;48.810;9.282;2023-05-10T08:09:29;25.70;56.10
1367;DHT22;16877;48.810;9.282;2023-05-10T08:12:20;25.40;55.70
1367;DHT22;16877;48.810;9.282;2023-05-10T08:14:58;25.30;55.50
1367;DHT22;16877;48.810;9.282;2023-05-10T08:17:30;25.50;55.50
1367;DHT22;16877;48.810;9.282;2023-05-10T08:20:05;25.20;55.20
1367;DHT22;16877;48.810;9.282;2023-05-10T08:22:35;25.40;55.30
1367;DHT22;16877;48.810;9.282;2023-05-10T08:25:32;25.40;55.10
1367;DHT22;16877;48.810;9.282;2023-05-10T08:28:03;25.50;54.90
1367;DHT22;16877;48.810;9.282;2023-05-10T08:30:31;25.30;54.80
1367;DHT22;16877;48.810;9.282;2023-05-10T08:33:03;25.40;54.70
1367;DHT22;16877;48.810;9.282;2023-05-10T08:35:35;25.50;54.60
1367;DHT22;16877;48.810;9.282;2023-05-10T08:38:04;25.30;54.30
1367;DHT22;16877;48.810;9.282;2023-05-10T08:40:35;25.30;54.30
1367;DHT22;16877;48.810;9.282;2023-05-10T08:43:06;25.30;54.20
1367;DHT22;16877;48.810;9.282;2023-05-10T08:45:38;25.40;54.20
1367;DHT22;16877;48.810;9.282;2023-05-10T08:48:07;25.40;54.20
1367;DHT22;16877;48.810;9.282;2023-05-10T08:50:37;25.20;53.90
1367;DHT22;16877;48.810;9.282;2023-05-10T08:53:05;25.50;53.90
1367;DHT22;16877;48.810;9.282;2023-05-10T08:55:34;25.30;53.60
1367;DHT22;16877;48.810;9.282;2023-05-10T08:58:04;25.40;53.40
1367;DHT22;16877;48.810;9.282;2023-05-10T09:00:32;25.40;53.30
1367;DHT22;16877;48.810;9.282;2023-05-10T09:02:59;25.50;53.30
1367;DHT22;16877;48.810;9.282;2023-05-10T09:05:28;25.50;53.30
1367;DHT22;16877;48.810;9.282;2023-05-10T09:07:56;25.70;53.60
1367;DHT22;16877;48.810;9.282;2023-05-10T09:10:25;25.80;53.60
1367;DHT22;16877;48.810;9.282;2023-05-10T09:12:57;25.70;53.30
1367;DHT22;16877;48.810;9.282;2023-05-10T09:15:25;25.90;58.30
1367;DHT22;16877;48.810;9.282;2023-05-10T09:17:54;26.10;58.50
1367;DHT22;16877;48.810;9.282;2023-05-10T09:20:21;26.20;58.10
1367;DHT22;16877;48.810;9.282;2023-05-10T09:22:49;26.40;57.90
1367;DHT22;16877;48.810;9.282;2023-05-10T09:25:16;26.50;57.50
1367;DHT22;16877;48.810;9.282;2023-05-10T09:27:46;26.90;57.50
1367;DHT22;16877;48.810;9.282;2023-05-10T09:30:17;27.00;57.30
1367;DHT22;16877;48.810;9.282;2023-05-10T09:32:45;27.10;56.90
1367;DHT22;16877;48.810;9.282;2023-05-10T09:35:14;27.20;56.70
1367;DHT22;16877;48.810;9.282;2023-05-10T09:37:44;27.20;56.30
1367;DHT22;16877;48.810;9.282;2023-05-10T09:40:12;27.20;56.10
1367;DHT22;16877;48.810;9.282;2023-05-10T09:42:41;27.20;55.90
1367;DHT22;16877;48.810;9.282;2023-05-10T09:45:09;27.00;55.70
1367;DHT22;16877;48.810;9.282;2023-05-10T09:47:39;27.20;55.20
1367;DHT22;16877;48.810;9.282;2023-05-10T09:50:07;27.50;55.50
1367;DHT22;16877;48.810;9.282;2023-05-10T09:52:46;27.40;55.20
1367;DHT22;16877;48.810;9.282;2023-05-10T09:55:14;27.70;55.00
1367;DHT22;16877;48.810;9.282;2023-05-10T09:57:42;27.80;54.70
1367;DHT22;16877;48.810;9.282;2023-05-10T10:00:11;27.80;54.60
1367;DHT22;16877;48.810;9.282;2023-05-10T10:02:46;27.60;55.00
1367;DHT22;16877;48.810;9.282;2023-05-10T10:05:14;27.70;54.40
1367;DHT22;16877;48.810;9.282;2023-05-10T10:07:42;27.70;54.50
1367;DHT22;16877;48.810;9.282;2023-05-10T10:10:09;27.50;54.30
1367;DHT22;16877;48.810;9.282;2023-05-10T10:12:39;27.60;54.30
1367;DHT22;16877;48.810;9.282;2023-05-10T10:15:08;27.40;54.00
1367;DHT22;16877;48.810;9.282;2023-05-10T10:17:36;27.10;53.80
1367;DHT22;16877;48.810;9.282;2023-05-10T10:20:08;27.50;54.10
1367;DHT22;16877;48.810;9.282;2023-05-10T10:22:36;27.60;53.70
1367;DHT22;16877;48.810;9.282;2023-05-10T10:25:05;27.70;53.40
1367;DHT22;16877;48.810;9.282;2023-05-10T10:27:39;27.40;52.70
1367;DHT22;16877;48.810;9.282;2023-05-10T10:30:16;27.40;52.60
1367;DHT22;16877;48.810;9.282;2023-05-10T10:33:06;27.30;52.90
1367;DHT22;16877;48.810;9.282;2023-05-10T10:35:37;27.20;52.40
1367;DHT22;16877;48.810;9.282;2023-05-10T10:38:07;27.00;52.70
1367;DHT22;16877;48.810;9.282;2023-05-10T10:40:35;26.90;52.80
1367;DHT22;16877;48.810;9.282;2023-05-10T10:43:22;26.60;51.60
1367;DHT22;16877;48.810;9.282;2023-05-10T10:46:12;26.70;52.70
1367;DHT22;16877;48.810;9.282;2023-05-10T10:48:40;26.70;52.60
1367;DHT22;16877;48.810;9.282;2023-05-10T10:51:09;27.00;52.80
1367;DHT22;16877;48.810;9.282;2023-05-10T10:53:39;26.70;52.50
1367;DHT22;16877;48.810;9.282;2023-05-10T10:56:08;27.10;52.70
1367;DHT22;16877;48.810;9.282;2023-05-10T10:58:37;27.10;52.30
1367;DHT22;16877;48.810;9.282;2023-05-10T11:01:12;26.90;52.60
1367;DHT22;16877;48.810;9.282;2023-05-10T11:03:40;26.90;52.10
1367;DHT22;16877;48.810;9.282;2023-05-10T11:06:09;27.00;52.20
1367;DHT22;16877;48.810;9.282;2023-05-10T11:08:42;26.80;51.90
1367;DHT22;16877;48.810;9.282;2023-05-10T11:11:14;26.70;51.40
1367;DHT22;16877;48.810;9.282;2023-05-10T11:13:43;26.80;51.90
1367;DHT22;16877;48.810;9.282;2023-05-10T11:16:15;26.50;51.60
1367;DHT22;16877;48.810;9.282;2023-05-10T11:18:52;26.50;53.10
1367;DHT22;16877;48.810;9.282;2023-05-10T11:21:21;26.60;52.50
1367;DHT22;16877;48.810;9.282;2023-05-10T11:23:49;26.40;51.90
1367;DHT22;16877;48.810;9.282;2023-05-10T11:26:17;26.20;52.40
1367;DHT22;16877;48.810;9.282;2023-05-10T11:28:49;26.30;51.70
1367;DHT22;16877;48.810;9.282;2023-05-10T11:31:31;26.40;52.70
1367;DHT22;16877;48.810;9.282;2023-05-10T11:33:59;26.30;52.20
1367;DHT22;16877;48.810;9.282;2023-05-10T11:36:33;26.10;52.00
1367;DHT22;16877;48.810;9.282;2023-05-10T11:39:02;26.20;52.70
1367;DHT22;16877;48.810;9.282;2023-05-10T11:41:30;26.40;52.60
1367;DHT22;16877;48.810;9.282;2023-05-10T11:43:58;26.30;50.80
1367;DHT22;16877;48.810;9.282;2023-05-10T11:46:27;26.30;52.50
1367;DHT22;16877;48.810;9.282;2023-05-10T11:49:00;26.10;52.60
1367;DHT22;16877;48.810;9.282;2023-05-10T11:51:33;26.00;52.40
1367;DHT22;16877;48.810;9.282;2023-05-10T11:54:06;26.10;51.50
1367;DHT22;16877;48.810;9.282;2023-05-10T11:56:33;26.10;50.10
1367;DHT22;16877;48.810;9.282;2023-05-10T11:59:04;26.30;49.60
1367;DHT22;16877;48.810;9.282;2023-05-10T12:01:31;26.10;48.90
1367;DHT22;16877;48.810;9.282;2023-05-10T12:04:02;26.00;48.50
1367;DHT22;16877;48.810;9.282;2023-05-10T12:06:37;26.00;48.40
1367;DHT22;16877;48.810;9.282;2023-05-10T12:09:21;26.20;48.50
1367;DHT22;16877;48.810;9.282;2023-05-10T12:11:49;25.90;48.40
1367;DHT22;16877;48.810;9.282;2023-05-10T12:14:22;25.90;48.40
1367;DHT22;16877;48.810;9.282;2023-05-10T12:16:50;26.20;48.30
1367;DHT22;16877;48.810;9.282;2023-05-10T12:19:19;25.90;47.90
1367;DHT22;16877;48.810;9.282;2023-05-10T12:21:48;25.80;48.00
1367;DHT22;16877;48.810;9.282;2023-05-10T12:24:15;26.20;48.20
1367;DHT22;16877;48.810;9.282;2023-05-10T12:26:45;26.10;48.10
1367;DHT22;16877;48.810;9.282;2023-05-10T12:29:14;26.00;47.70
1367;DHT22;16877;48.810;9.282;2023-05-10T12:31:55;26.00;47.90
1367;DHT22;16877;48.810;9.282;2023-05-10T12:34:29;26.00;48.00
1367;DHT22;16877;48.810;9.282;2023-05-10T12:37:07;26.10;48.20
1367;DHT22;16877;48.810;9.282;2023-05-10T12:39:39;26.20;48.50
1367;DHT22;16877;48.810;9.282;2023-05-10T12:42:07;26.20;48.50
1367;DHT22;16877;48.810;9.282;2023-05-10T12:44:39;26.10;48.30
1367;DHT22;16877;48.810;9.282;2023-05-10T12:47:09;26.30;48.00
1367;DHT22;16877;48.810;9.282;2023-05-10T12:49:47;26.20;47.80
1367;DHT22;16877;48.810;9.282;2023-05-10T12:52:17;26.20;47.80
1367;DHT22;16877;48.810;9.282;2023-05-10T12:54:46;26.20;47.90
1367;DHT22;16877;48.810;9.282;2023-05-10T12:57:15;26.00;47.80
1367;DHT22;16877;48.810;9.282;2023-05-10T12:59:57;26.30;48.00
1367;DHT22;16877;48.810;9.282;2023-05-10T13:02:39;26.10;47.60
1367;DHT22;16877;48.810;9.282;2023-05-10T13:05:07;26.20;47.50
1367;DHT22;16877;48.810;9.282;2023-05-10T13:07:36;26.10;47.40
1367;DHT22;16877;48.810;9.282;2023-05-10T13:10:05;26.20;47.30
1367;DHT22;16877;48.810;9.282;2023-05-10T13:12:34;26.20;47.30
1367;DHT22;16877;48.810;9.282;2023-05-10T13:15:01;26.10;47.00
1367;DHT22;16877;48.810;9.282;2023-05-10T13:17:29;26.20;47.10
1367;DHT22;16877;48.810;9.282;2023-05-10T13:19:56;26.00;47.00
1367;DHT22;16877;48.810;9.282;2023-05-10T13:22:24;26.20;47.20
1367;DHT22;16877;48.810;9.282;2023-05-10T13:24:56;26.00;47.10
1367;DHT22;16877;48.810;9.282;2023-05-10T13:27:25;26.10;47.20
1367;DHT22;16877;48.810;9.282;2023-05-10T13:29:53;26.00;47.30
1367;DHT22;16877;48.810;9.282;2023-05-10T13:32:20;26.00;47.40
1367;DHT22;16877;48.810;9.282;2023-05-10T13:34:48;26.10;47.40
1367;DHT22;16877;48.810;9.282;2023-05-10T13:37:15;26.00;47.40
1367;DHT22;16877;48.810;9.282;2023-05-10T13:39:43;26.20;47.50
1367;DHT22;16877;48.810;9.282;2023-05-10T13:42:12;25.90;47.40
1367;DHT22;16877;48.810;9.282;2023-05-10T13:44:41;26.20;47.70
1367;DHT22;16877;48.810;9.282;2023-05-10T13:47:23;26.30;47.70
1367;DHT22;16877;48.810;9.282;2023-05-10T13:49:51;26.20;47.60
1367;DHT22;16877;48.810;9.282;2023-05-10T13:52:19;26.50;47.60
1367;DHT22;16877;48.810;9.282;2023-05-10T13:55:01;26.40;47.50
1367;DHT22;16877;48.810;9.282;2023-05-10T13:57:30;26.40;47.40
1367;DHT22;16877;48.810;9.282;2023-05-10T13:59:58;26.60;47.60
1367;DHT22;16877;48.810;9.282;2023-05-10T14:02:26;26.50;47.30
1367;DHT22;16877;48.810;9.282;2023-05-10T14:04:54;26.40;47.10
1367;DHT22;16877;48.810;9.282;2023-05-10T14:07:25;26.60;47.10
1367;DHT22;16877;48.810;9.282;2023-05-10T14:09:53;26.50;46.80
1367;DHT22;16877;48.810;9.282;2023-05-10T14:12:20;26.50;46.70
1367;DHT22;16877;48.810;9.282;2023-05-10T14:15:05;26.40;46.70
1367;DHT22;16877;48.810;9.282;2023-05-10T14:17:33;26.50;46.70
1367;DHT22;16877;48.810;9.282;2023-05-10T14:20:01;26.50;46.70
1367;DHT22;16877;48.810;9.282;2023-05-10T14:22:29;26.70;46.50
1367;DHT22;16877;48.810;9.282;2023-05-10T14:24:56;26.70;46.40
1367;DHT22;16877;48.810;9.282;2023-05-10T14:27:24;26.70;46.30
1367;DHT22;16877;48.810;9.282;2023-05-10T14:29:52;26.80;47.40
1367;DHT22;16877;48.810;9.282;2023-05-10T14:32:22;26.90;47.50
1367;DHT22;16877;48.810;9.282;2023-05-10T14:34:49;27.00;48.10
1367;DHT22;16877;48.810;9.282;2023-05-10T14:37:17;26.90;47.30
1367;DHT22;16877;48.810;9.282;2023-05-10T14:39:44;27.10;47.20
1367;DHT22;16877;48.810;9.282;2023-05-10T14:42:12;27.20;46.80
1367;DHT22;16877;48.810;9.282;2023-05-10T14:44:40;27.20;47.00
1367;DHT22;16877;48.810;9.282;2023-05-10T14:47:07;27.20;46.90
1367;DHT22;16877;48.810;9.282;2023-05-10T14:49:37;27.00;46.50
1367;DHT22;16877;48.810;9.282;2023-05-10T14:52:04;27.30;46.00
1367;DHT22;16877;48.810;9.282;2023-05-10T14:54:32;27.30;46.00
1367;DHT22;16877;48.810;9.282;2023-05-10T14:57:00;27.20;45.70
1367;DHT22;16877;48.810;9.282;2023-05-10T14:59:29;27.40;45.50
1367;DHT22;16877;48.810;9.282;2023-05-10T15:01:59;27.50;45.30
1367;DHT22;16877;48.810;9.282;2023-05-10T15:04:27;27.20;44.70
1367;DHT22;16877;48.810;9.282;2023-05-10T15:06:57;27.30;44.80
1367;DHT22;16877;48.810;9.282;2023-05-10T15:09:24;27.10;44.60
1367;DHT22;16877;48.810;9.282;2023-05-10T15:11:53;27.40;45.20
1367;DHT22;16877;48.810;9.282;2023-05-10T15:14:20;27.20;45.10
1367;DHT22;16877;48.810;9.282;2023-05-10T15:17:02;27.10;45.20
1367;DHT22;16877;48.810;9.282;2023-05-10T15:19:30;27.30;45.20
1367;DHT22;16877;48.810;9.282;2023-05-10T15:22:00;27.10;45.10
1367;DHT22;16877;48.810;9.282;2023-05-10T15:24:27;27.40;45.10
1367;DHT22;16877;48.810;9.282;2023-05-10T15:26:56;27.30;44.60
1367;DHT22;16877;48.810;9.282;2023-05-10T15:29:23;27.40;44.70
1367;DHT22;16877;48.810;9.282;2023-05-10T15:31:51;27.00;44.40
1367;DHT22;16877;48.810;9.282;2023-05-10T15:34:19;27.30;44.80
1367;DHT22;16877;48.810;9.282;2023-05-10T15:36:46;27.00;44.60
1367;DHT22;16877;48.810;9.282;2023-05-10T15:39:16;27.30;45.30
1367;DHT22;16877;48.810;9.282;2023-05-10T15:41:58;27.20;45.30
1367;DHT22;16877;48.810;9.282;2023-05-10T15:44:27;27.30;45.40
1367;DHT22;16877;48.810;9.282;2023-05-10T15:46:55;27.30;45.40
1367;DHT22;16877;48.810;9.282;2023-05-10T15:49:22;27.10;45.60
1367;DHT22;16877;48.810;9.282;2023-05-10T15:51:51;27.10;45.90
1367;DHT22;16877;48.810;9.282;2023-05-10T15:54:23;27.40;46.00
1367;DHT22;16877;48.810;9.282;2023-05-10T15:56:51;27.30;46.30
1367;DHT22;16877;48.810;9.282;2023-05-10T15:59:19;27.30;46.30
1367;DHT22;16877;48.810;9.282;2023-05-10T16:01:56;27.10;46.20
1367;DHT22;16877;48.810;9.282;2023-05-10T16:04:24;27.10;46.30